createdAt,value
2023-08-08T00:02:41.136Z,101411.91
2023-08-08T00:06:06.099Z,101391.38
2023-08-08T00:09:30.081Z,101387.78
2023-08-08T00:12:54.202Z,101378.69
2023-08-08T00:16:19.133Z,101376.88
2023-08-08T00:19:43.108Z,101371.94
2023-08-08T00:23:07.216Z,101368.38
2023-08-08T00:26:31.061Z,101361.53
2023-08-08T00:29:56.249Z,101363.25
2023-08-08T00:33:21.084Z,101362.47
2023-08-08T00:36:45.107Z,101356.13
2023-08-08T00:40:02.115Z,101354.25
2023-08-08T00:43:27.204Z,101345.81
2023-08-08T00:46:52.187Z,101345.53
2023-08-08T00:50:18.295Z,101346.94
2023-08-08T00:53:42.072Z,101324.22
2023-08-08T00:57:07.314Z,101325.09
2023-08-08T01:00:24.786Z,101325.34
2023-08-08T01:03:42.136Z,101305.63
2023-08-08T01:07:49.128Z,101300.13
2023-08-08T01:11:14.229Z,101289.56
2023-08-08T01:14:41.107Z,101287.06
2023-08-08T01:18:15.126Z,101277.72
2023-08-08T01:21:41.263Z,101282.75
2023-08-08T01:25:05.093Z,101275.41
2023-08-08T01:28:29.124Z,101265.59
2023-08-08T01:31:54.251Z,101259.41
2023-08-08T01:35:18.131Z,101266.91
2023-08-08T01:38:45.239Z,101256.56
2023-08-08T01:42:11.122Z,101251.59
2023-08-08T01:45:36.228Z,101254.56
2023-08-08T01:49:03.133Z,101250.22
2023-08-08T01:52:28.304Z,101254.09
2023-08-08T01:55:55.174Z,101257.25
2023-08-08T01:59:20.302Z,101252.81
2023-08-08T02:02:38.248Z,101255.47
2023-08-08T02:05:57.283Z,101252.41
2023-08-08T02:09:24.110Z,101219.66
2023-08-08T02:12:48.307Z,101239.16
2023-08-08T02:16:13.163Z,101226.22
2023-08-08T02:19:39.279Z,101236.66
2023-08-08T02:23:04.131Z,101222.22
2023-08-08T02:26:28.273Z,101247.09
2023-08-08T02:29:52.122Z,101236.44
2023-08-08T02:33:17.330Z,101249.50
2023-08-08T02:36:42.136Z,101243.25
2023-08-08T02:40:06.305Z,101237.88
2023-08-08T02:43:30.128Z,101236.16
2023-08-08T02:46:55.271Z,101235.69
2023-08-08T02:50:20.128Z,101230.84
2023-08-08T02:53:44.325Z,101239.78
2023-08-08T02:57:09.123Z,101215.22
2023-08-08T03:00:34.270Z,101249.91
2023-08-08T03:03:56.874Z,101232.75
2023-08-08T03:07:16.176Z,101239.25
2023-08-08T03:10:41.155Z,101238.38
2023-08-08T03:14:06.291Z,101255.03
2023-08-08T03:17:30.174Z,101248.16
2023-08-08T03:20:54.284Z,101240.16
2023-08-08T03:24:23.163Z,101237.13
2023-08-08T03:27:47.332Z,101250.09
2023-08-08T03:31:12.204Z,101245.22
2023-08-08T03:34:37.292Z,101244.16
2023-08-08T03:38:04.163Z,101243.50
2023-08-08T03:41:29.338Z,101240.56
2023-08-08T03:44:54.175Z,101235.03
2023-08-08T03:48:20.421Z,101229.34
2023-08-08T03:51:45.182Z,101238.91
2023-08-08T03:55:10.197Z,101251.44
2023-08-08T03:58:34.191Z,101258.72
2023-08-08T04:01:59.189Z,101257.47
2023-08-08T04:05:16.805Z,101257.59
2023-08-08T04:08:35.356Z,101246.03
2023-08-08T04:12:00.525Z,101251.88
2023-08-08T04:15:26.287Z,101259.56
2023-08-08T04:18:50.194Z,101245.81
2023-08-08T04:22:14.275Z,101262.09
2023-08-08T04:25:39.200Z,101273.09
2023-08-08T04:29:04.320Z,101279.31
2023-08-08T04:32:28.173Z,101271.13
2023-08-08T04:35:53.339Z,101268.50
2023-08-08T04:39:18.190Z,101277.41
2023-08-08T04:42:43.359Z,101278.59
2023-08-08T04:46:07.268Z,101283.06
2023-08-08T04:49:32.264Z,101273.06
2023-08-08T04:52:56.174Z,101275.88
2023-08-08T04:56:21.376Z,101293.84
2023-08-08T04:59:46.170Z,101287.38
2023-08-08T05:03:10.391Z,101301.09
2023-08-08T05:06:27.883Z,101299.41
2023-08-08T05:09:46.339Z,101311.19
2023-08-08T05:13:10.189Z,101307.84
2023-08-08T05:16:34.441Z,101307.31
2023-08-08T05:19:59.200Z,101309.78
2023-08-08T05:23:23.230Z,101311.03
2023-08-08T05:26:47.188Z,101315.22
2023-08-08T05:30:12.386Z,101316.13
2023-08-08T05:33:37.207Z,101327.38
2023-08-08T05:37:14.386Z,101323.03
2023-08-08T05:40:40.222Z,101336.03
2023-08-08T05:44:04.321Z,101335.63
2023-08-08T05:47:28.262Z,101331.56
2023-08-08T05:50:57.234Z,101320.69
2023-08-08T05:54:22.250Z,101337.28
2023-08-08T05:57:47.209Z,101334.28
2023-08-08T06:01:15.405Z,101328.31
2023-08-08T06:04:40.220Z,101337.59
2023-08-08T06:08:05.379Z,101340.00
2023-08-08T06:11:30.233Z,101336.66
2023-08-08T06:14:56.239Z,101356.19
2023-08-08T06:18:20.373Z,101356.25
2023-08-08T06:21:45.231Z,101365.63
2023-08-08T06:25:10.362Z,101381.19
2023-08-08T06:28:34.251Z,101383.28
2023-08-08T06:31:58.602Z,101384.88
2023-08-08T06:35:25.233Z,101384.56
2023-08-08T06:38:52.392Z,101383.13
2023-08-08T06:42:16.241Z,101389.69
2023-08-08T06:45:46.305Z,101388.66
2023-08-08T06:49:11.352Z,101394.88
2023-08-08T06:52:35.246Z,101395.94
2023-08-08T06:56:00.409Z,101378.91
2023-08-08T06:59:24.239Z,101380.00
2023-08-08T07:02:48.369Z,101393.31
2023-08-08T07:06:12.263Z,101388.81
2023-08-08T07:09:37.410Z,101392.06
2023-08-08T07:13:01.306Z,101392.72
2023-08-08T07:16:25.420Z,101396.66
2023-08-08T07:19:51.269Z,101401.97
2023-08-08T07:23:15.288Z,101404.44
2023-08-08T07:26:39.285Z,101416.13
2023-08-08T07:30:03.298Z,101426.84
2023-08-08T07:33:27.425Z,101426.19
2023-08-08T07:36:51.258Z,101436.13
2023-08-08T07:40:17.425Z,101424.88
2023-08-08T07:43:43.245Z,101425.38
2023-08-08T07:47:07.279Z,101433.13
2023-08-08T07:50:31.397Z,101423.84
2023-08-08T07:53:55.256Z,101432.56
2023-08-08T07:57:20.443Z,101432.41
2023-08-08T08:00:47.333Z,101427.88
2023-08-08T08:04:12.472Z,101441.16
2023-08-08T08:07:36.263Z,101433.25
2023-08-08T08:11:00.400Z,101441.00
2023-08-08T08:14:25.270Z,101440.19
2023-08-08T08:17:50.307Z,101430.09
2023-08-08T08:21:15.430Z,101441.81
2023-08-08T08:24:39.278Z,101437.06
2023-08-08T08:28:03.411Z,101436.66
2023-08-08T08:31:27.350Z,101439.16
2023-08-08T08:34:51.310Z,101445.53
2023-08-08T08:38:09.304Z,101428.41
2023-08-08T08:41:36.423Z,101444.88
2023-08-08T08:45:00.267Z,101457.50
2023-08-08T08:48:27.420Z,101441.97
2023-08-08T08:51:52.285Z,101442.84
2023-08-08T08:55:17.413Z,101441.00
2023-08-08T08:58:42.296Z,101443.25
2023-08-08T09:02:07.428Z,101443.31
2023-08-08T09:05:31.295Z,101440.81
2023-08-08T09:09:03.301Z,101436.31
2023-08-08T09:12:32.278Z,101443.31
2023-08-08T09:15:58.522Z,101442.50
2023-08-08T09:19:22.339Z,101439.41
2023-08-08T09:22:46.434Z,101437.72
2023-08-08T09:26:10.292Z,101452.31
2023-08-08T09:29:34.426Z,101446.78
2023-08-08T09:33:00.301Z,101444.94
2023-08-08T09:36:28.442Z,101448.03
2023-08-08T09:39:45.911Z,101447.19
2023-08-08T09:43:03.442Z,101447.03
2023-08-08T09:46:28.395Z,101433.19
2023-08-08T09:49:53.358Z,101439.81
2023-08-08T09:53:19.323Z,101425.56
2023-08-08T09:56:44.343Z,101432.16
2023-08-08T10:00:08.315Z,101417.91
2023-08-08T10:03:33.542Z,101425.78
2023-08-08T10:06:58.322Z,101418.81
2023-08-08T10:10:23.357Z,101428.47
2023-08-08T10:13:47.306Z,101436.06
2023-08-08T10:17:06.483Z,101444.34
2023-08-08T10:20:30.332Z,101440.78
2023-08-08T10:23:55.483Z,101436.75
2023-08-08T10:27:20.334Z,101435.91
2023-08-08T10:30:45.477Z,101431.38
2023-08-08T10:34:21.322Z,101429.91
2023-08-08T10:37:46.446Z,101433.03
2023-08-08T10:41:07.924Z,101440.44
2023-08-08T10:44:34.424Z,101450.13
2023-08-08T10:47:58.330Z,101445.31
2023-08-08T10:51:22.537Z,101443.69
2023-08-08T10:54:46.326Z,101441.19
2023-08-08T10:58:14.353Z,101435.84
2023-08-08T11:01:41.342Z,101442.09
2023-08-08T11:05:00.393Z,101438.69
2023-08-08T11:08:25.354Z,101443.91
2023-08-08T11:11:56.512Z,101434.31
2023-08-08T11:15:20.324Z,101437.00
2023-08-08T11:18:45.507Z,101433.44
2023-08-08T11:22:10.336Z,101424.38
2023-08-08T11:25:35.372Z,101424.56
2023-08-08T11:29:09.353Z,101419.84
2023-08-08T11:32:34.486Z,101420.81
2023-08-08T11:36:01.344Z,101429.75
2023-08-08T11:39:25.461Z,101429.09
2023-08-08T11:42:43.852Z,101430.44
2023-08-08T11:46:10.405Z,101428.34
2023-08-08T11:49:34.470Z,101422.66
2023-08-08T11:53:04.820Z,101426.53
2023-08-08T11:56:29.357Z,101420.75
2023-08-08T11:59:54.348Z,101423.59
2023-08-08T12:03:20.573Z,101432.78
2023-08-08T12:06:45.533Z,101441.91
2023-08-08T12:10:10.626Z,101419.94
2023-08-08T12:13:40.361Z,101416.16
2023-08-08T12:17:04.700Z,101413.97
2023-08-08T12:20:31.346Z,101416.94
2023-08-08T12:23:56.517Z,101407.84
2023-08-08T12:27:20.351Z,101419.50
2023-08-08T12:30:44.510Z,101428.53
2023-08-08T12:34:08.365Z,101422.31
2023-08-08T12:37:32.535Z,101433.53
2023-08-08T12:40:56.374Z,101435.31
2023-08-08T12:44:21.386Z,101443.31
2023-08-08T12:47:46.378Z,101440.25
2023-08-08T12:51:12.502Z,101437.13
2023-08-08T12:54:37.447Z,101436.97
2023-08-08T12:58:02.385Z,101433.53
2023-08-08T13:01:26.342Z,101429.31
2023-08-08T13:04:50.489Z,101426.50
2023-08-08T13:08:15.357Z,101436.59
2023-08-08T13:11:39.503Z,101436.38
2023-08-08T13:15:03.356Z,101433.16
2023-08-08T13:18:28.404Z,101437.97
2023-08-08T13:21:53.529Z,101447.03
2023-08-08T13:25:17.372Z,101440.13
2023-08-08T13:28:41.529Z,101444.44
2023-08-08T13:32:05.359Z,101440.56
2023-08-08T13:35:29.560Z,101438.59
2023-08-08T13:38:55.193Z,101434.88
2023-08-08T13:42:20.545Z,101444.34
2023-08-08T13:45:45.490Z,101439.72
2023-08-08T13:49:09.504Z,101451.38
2023-08-08T13:52:33.383Z,101447.72
2023-08-08T13:55:58.501Z,101441.78
2023-08-08T13:59:23.396Z,101442.47
2023-08-08T14:02:47.597Z,101447.84
2023-08-08T14:06:11.389Z,101444.16
2023-08-08T14:09:37.425Z,101438.91
2023-08-08T14:13:01.427Z,101442.97
2023-08-08T14:16:26.596Z,101444.63
2023-08-08T14:19:51.398Z,101445.59
2023-08-08T14:23:16.556Z,101445.63
2023-08-08T14:26:41.392Z,101439.34
2023-08-08T14:30:06.460Z,101432.38
2023-08-08T14:33:32.415Z,101435.84
2023-08-08T14:36:56.547Z,101436.75
2023-08-08T14:40:20.382Z,101429.75
2023-08-08T14:43:45.540Z,101432.19
2023-08-08T14:47:09.396Z,101430.53
2023-08-08T14:50:34.675Z,101430.38
2023-08-08T14:53:58.426Z,101432.09
2023-08-08T14:57:23.440Z,101422.53
2023-08-08T15:00:47.568Z,101437.06
2023-08-08T15:04:13.461Z,101443.22
2023-08-08T15:07:37.426Z,101428.03
2023-08-08T15:11:01.434Z,101425.81
2023-08-08T15:14:26.415Z,101426.41
2023-08-08T15:17:51.462Z,101416.56
2023-08-08T15:21:15.559Z,101409.50
2023-08-08T15:24:42.414Z,101423.91
2023-08-08T15:28:06.552Z,101426.97
2023-08-08T15:31:30.468Z,101437.94
2023-08-08T15:34:54.458Z,101432.91
2023-08-08T15:38:18.415Z,101440.53
2023-08-08T15:41:44.526Z,101434.97
2023-08-08T15:45:09.396Z,101446.53
2023-08-08T15:48:33.578Z,101443.63
2023-08-08T15:51:57.392Z,101435.66
2023-08-08T15:55:21.576Z,101437.00
2023-08-08T15:58:45.429Z,101442.66
2023-08-08T16:02:09.590Z,101444.91
2023-08-08T16:05:33.445Z,101440.03
2023-08-08T16:08:58.585Z,101444.75
2023-08-08T16:12:22.461Z,101449.63
2023-08-08T16:15:46.570Z,101446.47
2023-08-08T16:19:10.441Z,101445.09
2023-08-08T16:22:35.584Z,101441.00
2023-08-08T16:26:00.448Z,101450.22
2023-08-08T16:29:24.606Z,101448.00
2023-08-08T16:32:49.455Z,101442.34
2023-08-08T16:36:13.460Z,101440.13
2023-08-08T16:39:38.483Z,101445.97
2023-08-08T16:43:02.427Z,101455.81
2023-08-08T16:46:27.608Z,101452.34
2023-08-08T16:49:51.410Z,101455.53
2023-08-08T16:53:16.576Z,101444.31
2023-08-08T16:56:41.427Z,101451.75
2023-08-08T17:00:05.575Z,101444.38
2023-08-08T17:03:29.557Z,101454.75
2023-08-08T17:06:54.475Z,101457.09
2023-08-08T17:10:19.485Z,101452.06
2023-08-08T17:13:43.445Z,101468.34
2023-08-08T17:17:09.613Z,101470.44
2023-08-08T17:20:34.443Z,101472.75
2023-08-08T17:23:59.637Z,101477.00
2023-08-08T17:27:23.465Z,101479.59
2023-08-08T17:30:48.728Z,101472.53
2023-08-08T17:34:15.452Z,101477.91
2023-08-08T17:37:40.657Z,101475.97
2023-08-08T17:41:05.447Z,101469.38
2023-08-08T17:44:29.545Z,101476.06
2023-08-08T17:47:53.644Z,101483.78
2023-08-08T17:51:17.454Z,101490.72
2023-08-08T17:54:41.490Z,101488.41
2023-08-08T17:58:05.463Z,101494.59
2023-08-08T18:01:30.653Z,101485.34
2023-08-08T18:04:54.476Z,101491.78
2023-08-08T18:08:20.485Z,101485.47
2023-08-08T18:11:47.481Z,101483.72
2023-08-08T18:15:12.592Z,101481.00
2023-08-08T18:18:36.458Z,101480.91
2023-08-08T18:22:01.803Z,101486.06
2023-08-08T18:25:27.654Z,101494.16
2023-08-08T18:28:51.484Z,101492.63
2023-08-08T18:32:16.606Z,101498.53
2023-08-08T18:35:41.479Z,101501.41
2023-08-08T18:39:05.610Z,101513.03
2023-08-08T18:42:30.479Z,101518.28
2023-08-08T18:45:55.640Z,101529.25
2023-08-08T18:49:19.471Z,101543.88
2023-08-08T18:52:44.674Z,101547.69
2023-08-08T18:56:08.473Z,101546.81
2023-08-08T18:59:33.612Z,101572.59
2023-08-08T19:02:57.643Z,101579.81
2023-08-08T19:06:22.628Z,101578.28
2023-08-08T19:09:47.510Z,101583.66
2023-08-08T19:13:14.372Z,101584.44
2023-08-08T19:16:39.550Z,101581.31
2023-08-08T19:20:04.622Z,101589.53
2023-08-08T19:23:29.508Z,101592.06
2023-08-08T19:26:54.483Z,101607.28
2023-08-08T19:30:18.682Z,101604.44
2023-08-08T19:33:48.694Z,101610.69
2023-08-08T19:37:24.697Z,101607.13
2023-08-08T19:40:43.116Z,101614.09
2023-08-08T19:44:00.603Z,101618.91
2023-08-08T19:47:25.526Z,101621.09
2023-08-08T19:50:51.624Z,101620.66
2023-08-08T19:54:15.475Z,101614.41
2023-08-08T19:57:39.517Z,101617.66
2023-08-08T20:01:04.521Z,101615.53
2023-08-08T20:04:28.666Z,101614.91
2023-08-08T20:07:53.443Z,101610.75
2023-08-08T20:11:19.620Z,101615.25
2023-08-08T20:14:43.507Z,101624.03
2023-08-08T20:18:08.524Z,101629.88
2023-08-08T20:21:32.667Z,101629.47
2023-08-08T20:24:56.498Z,101625.56
2023-08-08T20:28:21.665Z,101635.53
2023-08-08T20:31:45.489Z,101629.53
2023-08-08T20:35:10.651Z,101628.13
2023-08-08T20:38:35.501Z,101623.75
2023-08-08T20:41:59.956Z,101606.00
2023-08-08T20:45:25.604Z,101606.41
2023-08-08T20:48:49.521Z,101616.03
2023-08-08T20:52:13.530Z,101626.41
2023-08-08T20:55:38.672Z,101624.09
2023-08-08T20:59:03.568Z,101624.16
2023-08-08T21:02:27.692Z,101621.75
2023-08-08T21:05:51.555Z,101623.94
2023-08-08T21:09:19.676Z,101624.41
2023-08-08T21:12:44.529Z,101626.34
2023-08-08T21:16:08.653Z,101614.38
2023-08-08T21:19:31.528Z,101617.44
2023-08-08T21:22:56.556Z,101611.00
2023-08-08T21:26:26.200Z,101609.09
2023-08-08T21:30:00.654Z,101604.72
2023-08-08T21:33:24.535Z,101611.09
2023-08-08T21:36:48.546Z,101603.09
2023-08-08T21:40:11.536Z,101609.88
2023-08-08T21:43:36.693Z,101612.56
2023-08-08T21:47:02.807Z,101604.31
2023-08-08T21:50:28.735Z,101602.19
2023-08-08T21:53:53.541Z,101608.66
2023-08-08T21:57:17.561Z,101618.59
2023-08-08T22:00:42.613Z,101620.97
2023-08-08T22:04:06.568Z,101622.22
2023-08-08T22:07:31.564Z,101627.53
2023-08-08T22:10:54.723Z,101623.41
2023-08-08T22:14:19.549Z,101619.56
2023-08-08T22:17:53.354Z,101616.16
2023-08-08T22:21:18.546Z,101613.34
2023-08-08T22:24:44.581Z,101616.53
2023-08-08T22:28:08.598Z,101605.03
2023-08-08T22:31:33.541Z,101610.31
2023-08-08T22:34:57.692Z,101599.13
2023-08-08T22:38:21.571Z,101610.88
2023-08-08T22:41:45.685Z,101612.06
2023-08-08T22:45:03.177Z,101610.63
2023-08-08T22:48:21.580Z,101607.78
2023-08-08T22:51:46.581Z,101605.47
2023-08-08T22:55:12.592Z,101591.25
2023-08-08T22:58:37.604Z,101592.97
2023-08-08T23:02:02.615Z,101585.84
2023-08-08T23:05:26.615Z,101586.38
2023-08-08T23:08:50.606Z,101581.31
2023-08-08T23:12:14.584Z,101578.44
2023-08-08T23:15:38.606Z,101572.22
2023-08-08T23:19:03.720Z,101576.13
2023-08-08T23:22:27.564Z,101574.38
2023-08-08T23:25:54.625Z,101541.50
2023-08-08T23:29:19.569Z,101564.28
2023-08-08T23:32:53.546Z,101553.66
2023-08-08T23:36:19.582Z,101555.19
2023-08-08T23:39:44.616Z,101554.31
2023-08-08T23:43:09.602Z,101542.66
2023-08-08T23:46:33.606Z,101548.81
2023-08-08T23:49:57.592Z,101546.94
2023-08-08T23:53:22.702Z,101554.31
2023-08-08T23:56:46.599Z,101544.56
